Aérodrome :
LOGIN :

S'inscrire | Disclaimer

   EN    FR    IT 

 










Légende :    VFR   VFR Marginal   IFR   IFR Intensif   IFR Très Intensif
Visi : 
Plafond : 
>= 8 km
>= 3000ft
5 à 8 km
1000 à 3000 ft
1500m à 5 km
500 à 1000 ft
800 à 1500m
200 à 500 ft
< 800m
< 200 ft
Symboles :   Orages  Brouillard  Fortes neiges  Fortes précipitations  Vent > 20 kt
SIGMETs :   Divers  Orages  Givrage  Turbulence  Onde Orograph.  Cendres Volcan.







- Altitude de l'aérodrome : 245 ft
- Code IATA : BIQ
- Voir les cartes d'approche


LFBZ - Biarritz

DERNIER METAR :
  • 231530Z AUTO 34003KT 320V030 9999 OVC047 15/12 Q1029 NOSIG

METARs EXPIRÉS :
  • 231500Z AUTO 31003KT 270V340 9999 FEW015 OVC047 15/12 Q1029 NOSIG
  • 231430Z AUTO 31004KT 9999 BKN015 BKN041 OVC047 15/12 Q1029 NOSIG
  • 231400Z AUTO 36003KT 320V050 9999 FEW015 BKN040 OVC046 15/12 Q1029 NOSIG
  • 231330Z AUTO VRB03KT 9999 FEW014 SCT034 BKN041 15/12 Q1029 NOSIG
  • 231300Z AUTO 33004KT 290V050 9999 SCT014 SCT030 BKN038 15/12 Q1029 NOSIG

TAF AMD TAF LFBZ
Valide du 23 à 12h jusqu'au 24 à 12h UTC


231237Z 2312/2412 21003KT 9999 FEW010 BKN014
BECMG 2312/2314 VRB02KT SCT030
BECMG 2320/2322 09005KT
TEMPO 2322/2406 0500 BCFG NSC
PROB30
TEMPO 2402/2408 0800 FG
BECMG 2408/2410 CAVOK
Pas de NOTAMs connus pour ce terrain.



MET'MAP, la Météo Aéronautique d'un coup d'oeil ! - Copyright ORBIFLY Décembre 2007 - Disclaimer

ORBIFLY MET'MAP TEAM :

Programmation & Développement : Alexandra Zaïnal
Conception & Développement : Baudouin d'Aumeries
Co-Programmation & Développement : Marc-Olivier Méhu
Soutien technique & logistique : Manuel Goepfert

Contact : metmap@orbifly.com




SOURCES & CREDITS :

   NOAA